Time;durP1;ratioP1;P1;durP2;ratioP2;P2;SDS_P1;SDS_P2;PMS_P1;PMS_P2;Temp;Humidity;BMP_temperature;BMP_pressure;BME280_temperature;BME280_humidity;BME280_pressure;Samples;Min_cycle;Max_cycle;Signal;HPM_P1;HPM_P2
2023/09/22 00:00:10;;;;;;;13.95;8.23;;;;;;;13.67;100.00;99567.38;4940496;29;20081;-91
2023/09/22 00:02:35;;;;;;;16.83;8.40;;;;;;;13.60;100.00;99583.69;4925515;29;20031;-91
2023/09/22 00:05:03;;;;;;;19.70;8.10;;;;;;;13.57;100.00;99580.44;4920512;29;20098;-91
2023/09/22 00:07:29;;;;;;;20.35;8.88;;;;;;;13.47;100.00;99585.28;4924445;29;20035;-91
2023/09/22 00:09:55;;;;;;;18.60;8.70;;;;;;;13.55;100.00;99585.25;4923668;29;20038;-91
2023/09/22 00:12:20;;;;;;;21.40;9.52;;;;;;;13.56;100.00;99575.97;4934815;29;20064;-90
2023/09/22 00:14:49;;;;;;;18.02;8.80;;;;;;;13.49;100.00;99580.44;4919969;29;20127;-91
2023/09/22 00:17:14;;;;;;;18.63;8.73;;;;;;;13.36;100.00;99580.97;4946012;29;20038;-90
2023/09/22 00:19:39;;;;;;;24.27;9.93;;;;;;;13.50;100.00;99585.78;4940748;29;20114;-90
2023/09/22 00:22:05;;;;;;;18.65;9.40;;;;;;;13.54;100.00;99573.41;4921539;29;20578;-91
2023/09/22 00:24:31;;;;;;;18.95;9.43;;;;;;;13.39;100.00;99562.22;4939061;29;20514;-91
2023/09/22 00:26:56;;;;;;;19.08;9.63;;;;;;;13.34;100.00;99561.03;4923759;29;20119;-91
2023/09/22 00:29:22;;;;;;;18.42;9.85;;;;;;;13.42;100.00;99575.63;4926554;29;20032;-92
2023/09/22 00:31:48;;;;;;;20.38;8.98;;;;;;;13.31;100.00;99564.94;4925575;28;20034;-77
2023/09/22 00:34:13;;;;;;;20.40;10.13;;;;;;;13.29;100.00;99567.00;4953225;28;20032;-77
2023/09/22 00:36:40;;;;;;;23.20;9.25;;;;;;;13.29;100.00;99566.16;4914343;28;20027;-77
2023/09/22 00:39:05;;;;;;;21.27;9.73;;;;;;;13.21;100.00;99565.09;4948697;28;20055;-77
2023/09/22 00:41:31;;;;;;;26.85;10.02;;;;;;;13.31;100.00;99566.84;4948785;28;20126;-77
2023/09/22 00:43:56;;;;;;;25.90;9.90;;;;;;;13.15;100.00;99570.41;4952158;28;20696;-77
2023/09/22 00:46:25;;;;;;;24.63;10.13;;;;;;;13.08;100.00;99575.75;4949523;29;20051;-77
2023/09/22 00:48:52;;;;;;;28.27;10.57;;;;;;;13.11;100.00;99578.16;4946970;28;20043;-77
2023/09/22 00:51:21;;;;;;;23.77;9.85;;;;;;;13.16;100.00;99585.91;4952674;28;20471;-77
2023/09/22 00:53:48;;;;;;;23.73;9.68;;;;;;;12.98;100.00;99584.13;4936835;29;20164;-77
2023/09/22 00:56:19;;;;;;;20.35;10.13;;;;;;;12.93;100.00;99581.03;4953754;29;20027;-77
2023/09/22 00:58:45;;;;;;;24.60;10.40;;;;;;;13.08;100.00;99589.47;4955810;28;20114;-77
2023/09/22 01:01:11;;;;;;;25.10;10.63;;;;;;;13.12;100.00;99592.75;4954129;28;21217;-77
2023/09/22 01:03:36;;;;;;;22.38;10.90;;;;;;;13.09;100.00;99585.72;4937383;29;20038;-77
2023/09/22 01:06:02;;;;;;;27.75;11.10;;;;;;;12.88;100.00;99592.53;4952878;29;20118;-77
2023/09/22 01:08:27;;;;;;;31.48;12.00;;;;;;;12.88;100.00;99591.69;4945082;28;20039;-76
2023/09/22 01:10:54;;;;;;;30.23;12.38;;;;;;;12.76;100.00;99593.88;4954085;28;20031;-77
2023/09/22 01:13:20;;;;;;;26.63;11.95;;;;;;;12.96;100.00;99601.84;4944977;29;20033;-77
2023/09/22 01:15:45;;;;;;;26.95;12.05;;;;;;;12.96;100.00;99593.59;4936586;29;20110;-77
2023/09/22 01:18:13;;;;;;;23.10;11.13;;;;;;;12.85;100.00;99594.75;4946708;28;20478;-77
2023/09/22 01:20:43;;;;;;;30.92;13.48;;;;;;;12.74;100.00;99597.81;4953237;28;20043;-77
2023/09/22 01:23:09;;;;;;;30.98;13.90;;;;;;;12.70;100.00;99591.78;4954170;28;20034;-77
2023/09/22 01:25:36;;;;;;;30.05;12.63;;;;;;;12.81;100.00;99599.72;4949876;29;20032;-77
2023/09/22 01:28:02;;;;;;;31.52;12.88;;;;;;;12.63;100.00;99599.84;4950395;28;20042;-77
2023/09/22 01:30:29;;;;;;;34.67;13.82;;;;;;;12.72;100.00;99611.72;4950974;28;20118;-77
2023/09/22 01:32:54;;;;;;;30.38;12.60;;;;;;;12.65;100.00;99594.19;4958607;28;20148;-77
2023/09/22 01:35:21;;;;;;;34.30;13.00;;;;;;;12.67;100.00;99604.00;4949655;28;20491;-77
2023/09/22 01:37:55;;;;;;;32.28;13.15;;;;;;;12.81;100.00;99598.88;4927688;29;20040;-77
2023/09/22 01:40:22;;;;;;;41.20;12.93;;;;;;;12.83;100.00;99607.81;4947216;29;20024;-77
2023/09/22 01:42:47;;;;;;;30.80;13.35;;;;;;;12.81;100.00;99587.91;4953902;29;20051;-91
2023/09/22 01:45:13;;;;;;;35.70;13.38;;;;;;;12.76;100.00;99580.16;4952553;28;20035;-91
2023/09/22 01:47:40;;;;;;;32.05;12.38;;;;;;;12.74;100.00;99573.09;4961562;28;20110;-91
2023/09/22 01:50:08;;;;;;;34.25;13.07;;;;;;;12.73;100.00;99576.88;4928385;29;20016;-92
2023/09/22 01:52:33;;;;;;;36.33;13.55;;;;;;;12.72;100.00;99589.72;4965425;28;20039;-90
2023/09/22 01:54:59;;;;;;;34.35;13.50;;;;;;;12.76;100.00;99584.78;4963743;29;20011;-91
2023/09/22 01:57:24;;;;;;;34.60;13.80;;;;;;;12.75;100.00;99575.66;4946511;29;20031;-91
2023/09/22 01:59:51;;;;;;;34.40;13.65;;;;;;;12.64;100.00;99579.59;4923044;29;20028;-91
2023/09/22 02:02:17;;;;;;;38.65;13.35;;;;;;;12.71;100.00;99592.66;4954380;28;20052;-92
2023/09/22 02:04:43;;;;;;;34.33;13.48;;;;;;;12.82;100.00;99582.25;4925174;29;20421;-91
2023/09/22 02:07:10;;;;;;;41.38;14.50;;;;;;;12.69;100.00;99595.56;4941923;29;20031;-92
2023/09/22 02:09:36;;;;;;;41.88;14.80;;;;;;;12.61;100.00;99592.78;4926106;29;20035;-92
2023/09/22 02:12:04;;;;;;;47.13;15.88;;;;;;;12.63;100.00;99597.09;4941501;29;20098;-91
2023/09/22 02:14:30;;;;;;;39.78;14.15;;;;;;;12.83;100.00;99592.19;4939407;29;20423;-92
2023/09/22 02:16:58;;;;;;;46.08;16.10;;;;;;;12.70;100.00;99589.06;4941753;29;20038;-92
2023/09/22 02:19:24;;;;;;;43.20;15.00;;;;;;;12.64;100.00;99576.84;4933330;29;20038;-93
2023/09/22 02:21:50;;;;;;;41.63;14.68;;;;;;;12.67;100.00;99579.28;4936772;28;20137;-92
2023/09/22 02:24:18;;;;;;;45.50;15.18;;;;;;;12.59;100.00;99589.34;4948293;29;20028;-92
2023/09/22 02:26:45;;;;;;;41.22;15.60;;;;;;;12.71;100.00;99593.53;4940329;29;20035;-92
2023/09/22 02:29:10;;;;;;;42.53;15.32;;;;;;;12.65;100.00;99595.03;4926476;29;20051;-92
2023/09/22 02:31:36;;;;;;;44.78;14.70;;;;;;;12.63;100.00;99593.50;4952541;29;20058;-92
2023/09/22 02:34:01;;;;;;;37.45;14.18;;;;;;;12.58;100.00;99588.50;4957482;29;20046;-93
2023/09/22 02:36:28;;;;;;;36.33;14.80;;;;;;;12.57;100.00;99591.41;4940648;29;20509;-91
2023/09/22 02:38:53;;;;;;;44.83;15.35;;;;;;;12.63;100.00;99582.53;4943800;29;20042;-92
2023/09/22 02:41:19;;;;;;;38.85;15.43;;;;;;;12.65;100.00;99595.03;4927025;29;20028;-92
2023/09/22 02:43:45;;;;;;;39.92;15.23;;;;;;;12.61;100.00;99588.19;4926735;28;20023;-93
2023/09/22 02:46:11;;;;;;;42.53;15.07;;;;;;;12.64;100.00;99585.09;4939875;29;20074;-92
2023/09/22 02:48:36;;;;;;;38.08;14.85;;;;;;;12.61;100.00;99588.19;4940183;29;20412;-92
2023/09/22 02:51:06;;;;;;;36.15;14.50;;;;;;;12.67;100.00;99581.13;4939963;29;20050;-91
2023/09/22 02:53:33;;;;;;;41.15;14.32;;;;;;;12.74;100.00;99584.97;4957271;29;20043;-92
2023/09/22 02:56:05;;;;;;;38.85;13.35;;;;;;;12.63;100.00;99596.25;4924136;29;20118;-91
2023/09/22 02:58:32;;;;;;;38.50;14.20;;;;;;;12.86;100.00;99588.25;4960172;28;20027;-91
2023/09/22 03:00:58;;;;;;;33.10;13.07;;;;;;;12.79;100.00;99585.31;4940464;29;20514;-92
2023/09/22 03:03:24;;;;;;;31.50;12.77;;;;;;;12.78;100.00;99582.72;4920697;29;20070;-91
2023/09/22 03:05:49;;;;;;;37.25;13.70;;;;;;;12.75;100.00;99572.06;4940178;29;20498;-92
2023/09/22 03:08:16;;;;;;;52.50;14.32;;;;;;;12.87;100.00;99576.22;4951701;28;20038;-92
2023/09/22 03:10:42;;;;;;;28.83;12.95;;;;;;;12.82;100.00;99587.72;4940084;29;20041;-92
2023/09/22 03:13:07;;;;;;;33.85;12.73;;;;;;;12.79;100.00;99584.44;4921478;29;20110;-92
2023/09/22 03:15:38;;;;;;;29.65;11.77;;;;;;;12.84;100.00;99582.91;4922727;29;20039;-92
2023/09/22 03:18:05;;;;;;;28.35;12.00;;;;;;;12.89;100.00;99587.91;4940087;29;20035;-92
2023/09/22 03:20:30;;;;;;;30.48;11.65;;;;;;;12.97;100.00;99589.81;4940382;29;20035;-93
2023/09/22 03:22:57;;;;;;;22.13;11.50;;;;;;;12.97;100.00;99595.28;4921903;29;20045;-92
2023/09/22 03:25:22;;;;;;;25.55;10.80;;;;;;;12.81;100.00;99598.88;4926425;29;20082;-93
2023/09/22 03:27:49;;;;;;;21.08;10.15;;;;;;;12.87;100.00;99599.06;4956074;28;20019;-92
2023/09/22 03:30:15;;;;;;;27.52;11.10;;;;;;;12.92;100.00;99595.81;4935516;29;20007;-92
2023/09/22 03:32:42;;;;;;;21.63;10.30;;;;;;;12.92;100.00;99597.69;4960635;28;20031;-93
2023/09/22 03:35:11;;;;;;;21.13;10.27;;;;;;;12.95;100.00;99603.69;4929994;29;20036;-93
2023/09/22 03:37:40;;;;;;;20.88;9.45;;;;;;;12.93;100.00;99604.91;4927439;28;20035;-92
2023/09/22 03:40:20;;;;;;;19.73;9.60;;;;;;;12.91;100.00;99599.59;4961886;28;20024;-94
2023/09/22 03:43:01;;;;;;;19.42;9.60;;;;;;;12.96;100.00;99607.34;4953460;29;20130;-92
2023/09/22 03:45:28;;;;;;;16.02;8.90;;;;;;;12.99;100.00;99602.34;4924178;29;20055;-92
2023/09/22 03:47:53;;;;;;;16.38;9.00;;;;;;;12.94;100.00;99603.91;4950953;28;20501;-93
2023/09/22 03:50:18;;;;;;;16.83;8.18;;;;;;;12.95;100.00;99608.34;4944658;29;20046;-91
2023/09/22 03:52:46;;;;;;;24.35;8.50;;;;;;;12.99;100.00;99602.34;4962951;29;20035;-91
2023/09/22 03:55:12;;;;;;;17.70;7.97;;;;;;;12.94;100.00;99601.16;4942149;29;20529;-92
2023/09/22 03:57:38;;;;;;;23.63;9.43;;;;;;;13.10;100.00;99601.19;4956692;29;20098;-91
2023/09/22 04:00:08;;;;;;;15.73;7.97;;;;;;;13.18;100.00;99608.56;4957438;29;20390;-93
2023/09/22 04:02:33;;;;;;;14.38;7.15;;;;;;;13.08;100.00;99600.47;4934386;29;20073;-77
2023/09/22 04:04:59;;;;;;;17.90;7.07;;;;;;;13.10;100.00;99605.81;4942848;29;20059;-77
2023/09/22 04:07:25;;;;;;;12.98;6.32;;;;;;;13.09;100.00;99606.84;4947588;28;20031;-78
2023/09/22 04:09:50;;;;;;;10.65;6.80;;;;;;;13.06;100.00;99613.53;4932426;29;20498;-78
2023/09/22 04:12:16;;;;;;;13.13;6.85;;;;;;;13.01;100.00;99604.94;4948819;28;20047;-78
2023/09/22 04:14:43;;;;;;;11.65;6.88;;;;;;;13.04;100.00;99605.44;4944483;28;20502;-78
2023/09/22 04:17:08;;;;;;;18.30;6.18;;;;;;;13.15;100.00;99607.03;4949781;28;20039;-78
2023/09/22 04:19:34;;;;;;;14.88;6.35;;;;;;;13.20;100.00;99621.13;4956273;28;20074;-78
2023/09/22 04:22:00;;;;;;;34.28;7.00;;;;;;;13.23;100.00;99614.41;4954912;28;20086;-78
2023/09/22 04:24:32;;;;;;;12.18;5.80;;;;;;;13.18;100.00;99622.31;4944236;29;20039;-77
2023/09/22 04:27:09;;;;;;;12.48;5.80;;;;;;;13.37;100.00;99623.94;4944996;28;20545;-76
2023/09/22 04:29:35;;;;;;;13.15;6.32;;;;;;;13.35;100.00;99615.84;4950817;29;20043;-77
2023/09/22 04:32:02;;;;;;;8.88;4.85;;;;;;;13.34;100.00;99622.38;4945157;29;20034;-78
2023/09/22 04:34:28;;;;;;;10.00;5.18;;;;;;;13.34;100.00;99622.38;4927626;29;20107;-78
2023/09/22 04:36:53;;;;;;;12.77;5.40;;;;;;;13.38;100.00;99625.63;4938411;29;20036;-79
2023/09/22 04:39:21;;;;;;;9.90;4.93;;;;;;;13.35;100.00;99615.84;4953460;28;20039;-78
2023/09/22 04:41:47;;;;;;;17.23;6.22;;;;;;;13.37;100.00;99630.28;4951558;29;20117;-78
2023/09/22 04:44:12;;;;;;;10.15;5.20;;;;;;;13.32;100.00;99624.44;4950325;28;20459;-79
2023/09/22 04:46:37;;;;;;;18.58;5.72;;;;;;;13.29;100.00;99621.13;4950904;28;20031;-79
2023/09/22 04:49:04;;;;;;;12.65;5.00;;;;;;;13.34;100.00;99630.59;4952963;28;20417;-79
2023/09/22 04:51:30;;;;;;;14.52;5.65;;;;;;;13.41;100.00;99620.66;4939516;29;20138;-80
2023/09/22 04:53:56;;;;;;;10.88;4.80;;;;;;;13.40;100.00;99627.19;4937202;29;20430;-78
2023/09/22 04:56:22;;;;;;;11.48;4.82;;;;;;;13.46;100.00;99630.28;4950523;28;20597;-78
2023/09/22 04:58:47;;;;;;;12.85;5.03;;;;;;;13.38;100.00;99626.50;4951250;28;20023;-78
2023/09/22 05:01:14;;;;;;;11.48;4.68;;;;;;;13.27;100.00;99620.44;4934793;29;20123;-78
2023/09/22 05:03:40;;;;;;;12.23;4.93;;;;;;;13.24;100.00;99629.88;4945673;29;20099;-78
2023/09/22 05:06:09;;;;;;;12.05;5.68;;;;;;;13.20;100.00;99629.38;4953994;28;20090;-77
2023/09/22 05:08:34;;;;;;;8.10;4.70;;;;;;;13.19;100.00;99633.13;4939641;29;20035;-78
2023/09/22 05:11:08;;;;;;;15.82;4.45;;;;;;;13.11;100.00;99630.38;4946840;28;20036;-78
2023/09/22 05:13:35;;;;;;;12.18;4.63;;;;;;;13.00;100.00;99639.81;4948156;29;20118;-78
2023/09/22 05:16:12;;;;;;;11.05;4.93;;;;;;;13.04;100.00;99652.16;4954297;28;20039;-78
2023/09/22 05:18:39;;;;;;;10.13;4.70;;;;;;;13.00;100.00;99649.91;4944782;28;20035;-77
2023/09/22 05:21:05;;;;;;;10.80;4.68;;;;;;;12.94;100.00;99653.34;4952356;28;20035;-78
2023/09/22 05:23:34;;;;;;;8.35;5.00;;;;;;;12.91;100.00;99646.28;4935420;29;20060;-77
2023/09/22 05:26:05;;;;;;;9.20;4.63;;;;;;;12.88;100.00;99655.72;4937921;28;20111;-78
2023/09/22 05:28:31;;;;;;;14.00;4.50;;;;;;;13.04;100.00;99660.41;4949713;29;20055;-77
2023/09/22 05:30:57;;;;;;;9.75;4.93;;;;;;;12.84;100.00;99659.84;4948689;28;20487;-77
2023/09/22 05:33:24;;;;;;;10.88;4.68;;;;;;;12.90;100.00;99658.28;4919275;28;20046;-76
2023/09/22 05:35:50;;;;;;;9.95;4.53;;;;;;;12.80;100.00;99654.84;4935751;29;20039;-77
2023/09/22 05:38:16;;;;;;;7.80;4.50;;;;;;;13.11;100.00;99673.50;4949807;28;20050;-77
2023/09/22 05:40:43;;;;;;;10.43;4.60;;;;;;;13.06;100.00;99669.34;4946145;28;20035;-76
2023/09/22 05:43:13;;;;;;;12.00;5.72;;;;;;;13.03;100.00;99675.16;4949177;28;20379;-76
2023/09/22 05:45:39;;;;;;;15.27;5.10;;;;;;;12.97;100.00;99678.59;4956314;28;20031;-76
2023/09/22 05:48:05;;;;;;;15.55;6.63;;;;;;;13.06;100.00;99684.97;4949420;28;20118;-76
2023/09/22 05:50:30;;;;;;;10.70;4.82;;;;;;;12.86;100.00;99687.13;4952588;28;20039;-76
2023/09/22 05:52:56;;;;;;;12.88;4.65;;;;;;;12.80;100.00;99694.13;4933850;28;20045;-76
2023/09/22 05:55:22;;;;;;;11.90;5.07;;;;;;;12.73;100.00;99692.25;4953407;28;20516;-77
2023/09/22 05:57:50;;;;;;;7.68;4.45;;;;;;;12.84;100.00;99690.06;4951906;29;20513;-77
2023/09/22 06:00:17;;;;;;;11.82;4.63;;;;;;;12.75;100.00;99692.94;4951731;29;20039;-77
2023/09/22 06:02:51;;;;;;;20.85;4.95;;;;;;;12.86;100.00;99700.88;4951359;28;20035;-77
2023/09/22 06:05:17;;;;;;;9.57;4.43;;;;;;;12.82;100.00;99685.72;4952133;29;20039;-77
2023/09/22 06:07:43;;;;;;;9.90;4.50;;;;;;;12.87;100.00;99691.59;4949502;29;20094;-76
2023/09/22 06:10:09;;;;;;;9.15;4.30;;;;;;;12.68;100.00;99688.09;4917285;29;20035;-76
2023/09/22 06:12:38;;;;;;;14.77;4.85;;;;;;;12.85;100.00;99696.41;4948818;28;20495;-76
2023/09/22 06:15:08;;;;;;;12.55;4.18;;;;;;;12.88;100.00;99705.16;4950057;29;20035;-76
2023/09/22 06:17:35;;;;;;;11.25;4.35;;;;;;;12.94;100.00;99708.31;4948725;29;20034;-77
2023/09/22 06:20:15;;;;;;;20.42;4.75;;;;;;;13.09;100.00;99705.78;4953819;28;20034;-76
2023/09/22 06:22:44;;;;;;;8.38;3.88;;;;;;;13.28;100.00;99701.88;4941400;29;20034;-90
2023/09/22 06:25:10;;;;;;;8.60;3.45;;;;;;;13.27;100.00;99703.78;4944617;29;20027;-89
2023/09/22 06:27:37;;;;;;;6.97;3.22;;;;;;;13.39;100.00;99698.84;4955086;29;20795;-92
2023/09/22 06:30:03;;;;;;;8.45;4.30;;;;;;;13.33;100.00;99703.13;4935842;29;20098;-92
2023/09/22 06:32:28;;;;;;;9.88;3.78;;;;;;;13.47;100.00;99706.25;4949021;29;20046;-88
2023/09/22 06:34:55;;;;;;;7.15;3.38;;;;;;;13.68;100.00;99711.28;4958254;28;20035;-86
2023/09/22 06:37:21;;;;;;;8.45;3.15;;;;;;;13.62;100.00;99711.94;4962610;28;20562;-96
2023/09/22 06:39:46;;;;;;;9.98;4.03;;;;;;;13.51;100.00;99700.25;4944546;29;20036;-93
2023/09/22 06:42:12;;;;;;;6.90;3.17;;;;;;;13.29;100.00;99707.19;4959248;29;20038;-96
2023/09/22 06:44:37;;;;;;;11.55;4.35;;;;;;;13.38;100.00;99716.34;4974349;28;20034;-96
2023/09/22 06:47:04;;;;;;;7.55;3.50;;;;;;;13.46;100.00;99719.13;4972323;28;20102;-95
2023/09/22 07:05:43;;;;;;;8.90;3.03;;;;;;;14.26;100.00;99737.75;5497279;23;20102;-91
2023/09/22 07:08:09;;;;;;;8.18;3.33;;;;;;;14.04;100.00;99739.34;4942592;29;20050;-94
2023/09/22 07:10:38;;;;;;;9.10;2.33;;;;;;;14.14;100.00;99748.28;4935817;29;20487;-94
2023/09/22 07:13:07;;;;;;;7.13;2.22;;;;;;;14.32;100.00;99759.09;4939952;29;20522;-94
2023/09/22 07:15:36;;;;;;;17.63;2.25;;;;;;;14.58;100.00;99755.28;4944230;29;20038;-96
2023/09/22 07:18:02;;;;;;;10.27;1.88;;;;;;;14.53;100.00;99755.81;4919050;29;20035;-96
2023/09/22 07:20:27;;;;;;;7.20;1.73;;;;;;;14.45;100.00;99752.22;4913888;29;20118;-95
2023/09/22 07:22:54;;;;;;;3.80;1.90;;;;;;;14.96;100.00;99758.31;4936692;29;20039;-96
2023/09/22 07:25:26;;;;;;;5.70;1.77;;;;;;;14.86;100.00;99758.53;4912334;29;20032;-96
2023/09/22 07:27:56;;;;;;;4.00;1.52;;;;;;;14.61;100.00;99757.75;4932451;29;20062;-96
2023/09/22 07:30:22;;;;;;;4.38;1.75;;;;;;;14.43;100.00;99763.41;4921870;29;20031;-96
2023/09/22 07:32:48;;;;;;;3.00;1.17;;;;;;;14.36;100.00;99756.84;4913728;29;20040;-81
2023/09/22 07:35:14;;;;;;;4.47;1.10;;;;;;;14.42;100.00;99755.31;4913540;29;20461;-81
2023/09/22 07:37:39;;;;;;;4.82;1.08;;;;;;;14.61;100.00;99762.38;4897973;29;20491;-82
2023/09/22 07:40:08;;;;;;;3.45;1.05;;;;;;;14.83;100.00;99764.38;4922189;29;20119;-81
2023/09/22 07:42:34;;;;;;;5.80;1.15;;;;;;;14.86;100.00;99768.69;4917654;29;20082;-81
2023/09/22 07:44:59;;;;;;;5.20;1.10;;;;;;;15.01;100.00;99785.38;4909995;29;20031;-79
2023/09/22 07:47:25;;;;;;;9.48;1.55;;;;;;;15.05;100.00;99783.97;4908741;28;20128;-79
2023/09/22 07:49:54;;;;;;;4.60;0.90;;;;;;;15.15;100.00;99789.28;4916723;29;20419;-80
2023/09/22 07:52:20;;;;;;;7.82;1.10;;;;;;;15.37;100.00;99785.75;4925351;29;20028;-81
2023/09/22 07:54:45;;;;;;;3.05;1.00;;;;;;;15.26;100.00;99786.13;4924245;29;20031;-81
2023/09/22 07:57:13;;;;;;;4.70;0.95;;;;;;;15.57;100.00;99771.50;4919215;29;20386;-81
2023/09/22 07:59:39;;;;;;;7.32;1.10;;;;;;;15.68;100.00;99795.09;4923776;29;20383;-81
2023/09/22 08:02:06;;;;;;;7.03;1.38;;;;;;;15.58;100.00;99789.78;4932813;29;20035;-79
2023/09/22 08:04:31;;;;;;;6.10;1.27;;;;;;;16.12;100.00;99800.03;4925394;29;20040;-82
2023/09/22 08:06:59;;;;;;;2.30;1.05;;;;;;;16.33;100.00;99802.06;4925778;29;20063;-82
2023/09/22 08:09:26;;;;;;;2.83;0.98;;;;;;;15.88;100.00;99785.31;4907023;29;20031;-81
2023/09/22 08:11:52;;;;;;;5.05;1.10;;;;;;;16.06;100.00;99795.22;4928443;29;20047;-81
2023/09/22 08:14:18;;;;;;;4.88;1.35;;;;;;;16.02;100.00;99791.09;4902998;29;20052;-80
2023/09/22 08:16:43;;;;;;;4.22;1.10;;;;;;;15.96;100.00;99798.22;4887659;29;20063;-80
2023/09/22 08:19:11;;;;;;;5.63;1.20;;;;;;;16.14;100.00;99796.00;4931320;29;20495;-80
2023/09/22 08:21:38;;;;;;;6.30;0.90;;;;;;;15.67;100.00;99796.97;4909300;29;20031;-80
2023/09/22 08:24:05;;;;;;;2.17;0.82;;;;;;;15.78;100.00;99801.25;4928790;29;20027;-82
2023/09/22 08:26:31;;;;;;;5.03;1.13;;;;;;;15.92;100.00;99808.78;4884578;29;20488;-81
2023/09/22 08:28:57;;;;;;;4.15;0.98;;;;;;;16.08;100.00;99799.50;4921048;29;20040;-81
2023/09/22 08:31:25;;;;;;;3.65;1.27;;;;;;;16.75;100.00;99799.81;4927182;29;20107;-81
2023/09/22 08:33:51;;;;;;;4.90;1.17;;;;;;;17.39;100.00;99802.91;4927396;29;20051;-82
2023/09/22 08:36:16;;;;;;;4.03;1.25;;;;;;;17.97;100.00;99794.75;4924611;29;20038;-81
2023/09/22 08:38:41;;;;;;;5.78;0.82;;;;;;;17.33;100.00;99805.59;4928142;29;20076;-81
2023/09/22 08:41:07;;;;;;;7.63;1.08;;;;;;;16.77;100.00;99814.31;4914703;29;20062;-81
2023/09/22 08:43:33;;;;;;;4.55;0.82;;;;;;;17.26;100.00;99811.88;4935360;29;20066;-82
2023/09/22 08:46:01;;;;;;;3.55;0.60;;;;;;;16.90;100.00;99807.13;4918554;29;20046;-81
2023/09/22 08:48:28;;;;;;;2.58;0.60;;;;;;;16.85;100.00;99806.81;4922753;29;20039;-82
2023/09/22 08:50:55;;;;;;;3.35;0.90;;;;;;;17.61;100.00;99811.28;4932776;29;20031;-82
2023/09/22 08:53:21;;;;;;;7.72;0.80;;;;;;;17.78;100.00;99811.94;4913815;29;20119;-82
2023/09/22 08:55:51;;;;;;;2.70;0.80;;;;;;;17.08;100.00;99817.78;4895022;29;20459;-82
2023/09/22 08:58:20;;;;;;;4.40;0.75;;;;;;;17.48;100.00;99823.06;4931188;29;20028;-81
2023/09/22 09:00:53;;;;;;;3.15;0.70;;;;;;;17.80;100.00;99824.53;4916841;29;20023;-81
2023/09/22 09:03:20;;;;;;;7.65;0.93;;;;;;;18.09;100.00;99835.78;4916041;29;20035;-81
2023/09/22 09:05:46;;;;;;;5.32;0.73;;;;;;;17.85;100.00;99820.31;4934008;29;20063;-81
2023/09/22 09:08:17;;;;;;;7.07;0.70;;;;;;;18.12;100.00;99816.00;4901952;29;20031;-81
2023/09/22 09:10:45;;;;;;;1.52;0.77;;;;;;;18.81;100.00;99820.06;4936031;29;20020;-82
2023/09/22 09:13:23;;;;;;;3.88;0.88;;;;;;;17.88;100.00;99828.28;4931100;29;20059;-81
2023/09/22 09:15:53;;;;;;;3.83;0.77;;;;;;;17.99;100.00;99833.31;4918878;29;20079;-81
2023/09/22 09:18:20;;;;;;;1.30;0.70;;;;;;;18.53;100.00;99821.72;4916664;29;20506;-81
2023/09/22 09:20:47;;;;;;;2.65;0.60;;;;;;;17.51;100.00;99827.34;4917542;29;20479;-81
2023/09/22 09:23:17;;;;;;;1.73;0.63;;;;;;;17.25;100.00;99826.78;4917870;29;20019;-81
2023/09/22 09:25:54;;;;;;;2.42;0.70;;;;;;;16.57;100.00;99828.66;4933644;29;20086;-80
2023/09/22 09:28:21;;;;;;;2.60;0.70;;;;;;;17.17;100.00;99828.81;4930400;29;20486;-81
2023/09/22 09:30:54;;;;;;;1.10;0.70;;;;;;;17.23;100.00;99820.59;4924986;29;20483;-81
2023/09/22 09:33:30;;;;;;;;;;;;;;;17.22;100.00;99835.47;4915060;29;20028;-81
2023/09/22 09:35:58;;;;;;;3.80;0.68;;;;;;;17.94;100.00;99827.50;4929540;29;19923;-81
2023/09/22 09:38:27;;;;;;;4.05;0.70;;;;;;;18.79;100.00;99830.47;4934112;29;20093;-81
2023/09/22 09:40:54;;;;;;;2.05;0.55;;;;;;;19.23;100.00;99832.09;4926763;29;20032;-81
2023/09/22 09:43:20;;;;;;;2.03;0.70;;;;;;;18.95;100.00;99819.09;4933597;29;20029;-81
2023/09/22 09:45:51;;;;;;;1.17;0.60;;;;;;;19.34;100.00;99803.78;4938365;29;20039;-82
2023/09/22 09:48:18;;;;;;;2.60;0.60;;;;;;;18.70;100.00;99815.91;4932538;29;20035;-81
2023/09/22 09:50:51;;;;;;;6.28;0.90;;;;;;;19.34;100.00;99812.09;4919080;29;20460;-96
2023/09/22 09:53:42;;;;;;;3.70;1.33;;;;;;;19.65;100.00;99814.41;4927256;29;20028;-94
2023/09/22 09:56:13;;;;;;;4.22;0.50;;;;;;;19.08;100.00;99821.97;4930608;29;20079;-95
2023/09/22 09:58:39;;;;;;;3.25;0.70;;;;;;;18.85;100.00;99826.94;4953076;29;20032;-96
2023/09/22 10:01:07;;;;;;;1.98;0.60;;;;;;;19.24;100.00;99823.56;4917770;29;20042;-95
2023/09/22 10:03:42;;;;;;;1.30;0.60;;;;;;;18.76;100.00;99831.75;4948908;29;20115;-95
2023/09/22 10:06:13;;;;;;;1.92;0.60;;;;;;;18.73;100.00;99821.03;4937666;29;20086;-95
2023/09/22 10:08:39;;;;;;;4.40;0.70;;;;;;;18.82;100.00;99819.81;4924244;29;20146;-96
2023/09/22 10:11:08;;;;;;;1.27;0.68;;;;;;;18.95;100.00;99821.88;4918728;29;20066;-96
2023/09/22 10:13:35;;;;;;;2.65;0.60;;;;;;;18.86;100.00;99826.72;4925590;29;20040;-96
2023/09/22 10:16:05;;;;;;;2.33;0.70;;;;;;;19.19;100.00;99815.00;4940543;29;20031;-95
2023/09/22 10:18:51;;;;;;;3.53;0.70;;;;;;;19.58;100.00;99819.06;4947305;29;20042;-96
2023/09/22 10:21:46;;;;;;;2.28;0.70;;;;;;;18.78;100.00;99818.53;4935292;29;20553;-96
2023/09/22 10:24:27;;;;;;;0.93;0.60;;;;;;;18.10;100.00;99813.41;4928812;29;20059;-95
2023/09/22 10:27:07;;;;;;;1.85;0.65;;;;;;;18.19;100.00;99814.13;4933788;29;20040;-96
2023/09/22 10:29:33;;;;;;;5.97;0.90;;;;;;;18.12;100.00;99807.69;4967807;23;20030;-94
2023/09/22 10:32:26;;;;;;;3.50;0.70;;;;;;;18.29;100.00;99813.81;4946229;29;20258;-96
2023/09/22 10:35:03;;;;;;;1.80;0.65;;;;;;;18.34;100.00;99822.38;4951780;29;20082;-89
2023/09/22 10:37:32;;;;;;;3.85;0.88;;;;;;;18.22;100.00;99819.28;4933980;29;20518;-89
2023/09/22 10:40:11;;;;;;;2.58;0.90;;;;;;;17.54;100.00;99822.28;4926284;29;20039;-90
2023/09/22 10:42:42;;;;;;;4.90;0.90;;;;;;;17.32;100.00;99821.34;4951673;29;20074;-90
2023/09/22 10:45:07;;;;;;;2.70;0.80;;;;;;;18.33;100.00;99815.13;4940582;29;20027;-91
2023/09/22 10:47:43;;;;;;;3.22;0.88;;;;;;;18.91;100.00;99824.19;4922040;29;20042;-91
2023/09/22 10:50:26;;;;;;;3.35;1.10;;;;;;;19.04;100.00;99817.06;4933222;29;20023;-95
2023/09/22 10:53:06;;;;;;;3.13;0.63;;;;;;;18.29;100.00;99817.44;4935471;29;20050;-96
2023/09/22 10:55:37;;;;;;;2.72;0.70;;;;;;;17.91;100.00;99825.97;5380000;23;20054;-96
2023/09/22 10:58:16;;;;;;;1.98;0.65;;;;;;;18.08;100.00;99825.72;4956689;29;20039;-94
2023/09/22 11:01:04;;;;;;;6.82;0.90;;;;;;;17.74;100.00;99824.44;4942242;29;20039;-81
2023/09/22 11:03:32;;;;;;;2.58;0.70;;;;;;;17.58;100.00;99825.53;4952713;28;20031;-80
2023/09/22 11:06:06;;;;;;;1.15;0.80;;;;;;;17.57;100.00;99824.66;4950558;29;20089;-80
2023/09/22 11:08:33;;;;;;;2.60;0.70;;;;;;;17.91;100.00;99827.91;4949009;29;20027;-80
2023/09/22 11:11:02;;;;;;;2.95;0.80;;;;;;;18.08;100.00;99832.13;4953294;28;20101;-80
2023/09/22 11:13:27;;;;;;;2.08;0.63;;;;;;;18.43;100.00;99831.41;4950946;28;20031;-81
2023/09/22 11:15:57;;;;;;;1.90;0.70;;;;;;;19.01;100.00;99829.41;4949737;28;20042;-80
2023/09/22 11:18:29;;;;;;;2.35;0.70;;;;;;;19.25;100.00;99828.06;4952131;28;20035;-81
2023/09/22 11:20:59;;;;;;;3.35;0.80;;;;;;;19.81;100.00;99832.66;4944928;28;20042;-81
2023/09/22 11:23:27;;;;;;;2.03;0.60;;;;;;;20.03;100.00;99826.97;4948924;28;20163;-81
2023/09/22 11:25:58;;;;;;;1.13;0.75;;;;;;;19.98;100.00;99841.50;4952143;28;20065;-81
2023/09/22 11:28:23;;;;;;;4.68;0.70;;;;;;;19.23;100.00;99848.75;4951222;28;20051;-81
2023/09/22 11:30:50;;;;;;;3.25;1.02;;;;;;;19.21;100.00;99843.41;4948486;29;20070;-82
2023/09/22 11:33:17;;;;;;;2.83;0.60;;;;;;;18.69;100.00;99842.78;4934986;29;20038;-81
2023/09/22 11:35:43;;;;;;;2.97;0.80;;;;;;;18.73;100.00;99852.41;4950036;28;20031;-81
2023/09/22 11:38:21;;;;;;;1.88;0.70;;;;;;;18.60;100.00;99855.06;4932667;29;20101;-81